createdAt,value
2023-05-20T00:00:38.092Z,14.51
2023-05-20T00:01:38.049Z,14.52
2023-05-20T00:02:38.256Z,14.52
2023-05-20T00:03:38.315Z,14.52
2023-05-20T00:04:38.088Z,14.52
2023-05-20T00:05:38.006Z,14.54
2023-05-20T00:06:38.012Z,14.52
2023-05-20T00:07:37.984Z,14.54
2023-05-20T00:08:38.009Z,14.55
2023-05-20T00:09:37.969Z,14.54
2023-05-20T00:10:37.999Z,14.55
2023-05-20T00:11:37.939Z,14.55
2023-05-20T00:12:37.949Z,14.57
2023-05-20T00:13:37.935Z,14.58
2023-05-20T00:14:37.945Z,14.58
2023-05-20T00:15:38.017Z,14.58
2023-05-20T00:16:37.984Z,14.55
2023-05-20T00:17:37.911Z,14.55
2023-05-20T00:18:37.901Z,14.57
2023-05-20T00:19:37.854Z,14.57
2023-05-20T00:20:37.905Z,14.58
2023-05-20T00:21:37.833Z,14.58
2023-05-20T00:22:37.857Z,14.60
2023-05-20T00:23:37.833Z,14.58
2023-05-20T00:24:37.834Z,14.58
2023-05-20T00:25:37.795Z,14.57
2023-05-20T00:26:37.818Z,14.55
2023-05-20T00:27:37.781Z,14.57
2023-05-20T00:28:37.792Z,14.58
2023-05-20T00:29:37.766Z,14.58
2023-05-20T00:30:37.780Z,14.57
2023-05-20T00:31:37.800Z,14.57
2023-05-20T00:32:37.761Z,14.58
2023-05-20T00:33:37.712Z,14.57
2023-05-20T00:34:37.724Z,14.58
2023-05-20T00:35:37.683Z,14.58
2023-05-20T00:36:37.698Z,14.58
2023-05-20T00:37:37.656Z,14.61
2023-05-20T00:38:37.687Z,14.60
2023-05-20T00:39:37.659Z,14.60
2023-05-20T00:40:37.663Z,14.60
2023-05-20T00:41:37.643Z,14.58
2023-05-20T00:42:37.630Z,14.60
2023-05-20T00:43:37.596Z,14.60
2023-05-20T00:44:37.626Z,14.60
2023-05-20T00:45:37.616Z,14.60
2023-05-20T00:46:37.684Z,14.60
2023-05-20T00:47:37.629Z,14.58
2023-05-20T00:48:37.571Z,14.58
2023-05-20T00:49:37.537Z,14.60
2023-05-20T00:50:37.553Z,14.60
2023-05-20T00:51:37.513Z,14.60
2023-05-20T00:52:37.543Z,14.58
2023-05-20T00:53:37.492Z,14.60
2023-05-20T00:54:37.495Z,14.61
2023-05-20T00:55:37.470Z,14.62
2023-05-20T00:56:37.474Z,14.62
2023-05-20T00:57:37.456Z,14.62
2023-05-20T00:58:37.453Z,14.61
2023-05-20T00:59:37.436Z,14.61
2023-05-20T01:00:37.451Z,14.61
2023-05-20T01:01:37.447Z,14.61
2023-05-20T01:02:37.546Z,14.61
2023-05-20T01:03:37.486Z,14.61
2023-05-20T01:04:37.393Z,14.61
2023-05-20T01:05:39.804Z,14.61
2023-05-20T01:06:37.364Z,14.62
2023-05-20T01:07:37.339Z,14.61
2023-05-20T01:08:37.336Z,14.61
2023-05-20T01:09:37.326Z,14.62
2023-05-20T01:10:37.333Z,14.62
2023-05-20T01:11:37.313Z,14.64
2023-05-20T01:12:37.285Z,14.64
2023-05-20T01:13:37.292Z,14.62
2023-05-20T01:14:37.276Z,14.62
2023-05-20T01:15:37.564Z,14.65
2023-05-20T01:16:37.352Z,14.65
2023-05-20T01:17:37.271Z,14.64
2023-05-20T01:18:37.217Z,14.65
2023-05-20T01:19:37.226Z,14.64
2023-05-20T01:20:37.206Z,14.64
2023-05-20T01:21:37.196Z,14.64
2023-05-20T01:22:44.943Z,14.64
2023-05-20T01:23:37.181Z,14.62
2023-05-20T01:24:37.151Z,14.64
2023-05-20T01:25:37.353Z,14.61
2023-05-20T01:26:37.130Z,14.60
2023-05-20T01:27:37.143Z,14.61
2023-05-20T01:28:37.113Z,14.61
2023-05-20T01:29:37.112Z,14.61
2023-05-20T01:30:37.095Z,14.62
2023-05-20T01:31:37.171Z,14.61
2023-05-20T01:32:37.114Z,14.61
2023-05-20T01:33:37.070Z,14.58
2023-05-20T01:34:37.041Z,14.58
2023-05-20T01:35:37.161Z,14.58
2023-05-20T01:36:37.025Z,14.58
2023-05-20T01:37:37.030Z,14.57
2023-05-20T01:38:37.000Z,14.54
2023-05-20T01:39:37.024Z,14.54
2023-05-20T01:40:37.025Z,14.55
2023-05-20T01:41:36.987Z,14.54
2023-05-20T01:42:36.974Z,14.52
2023-05-20T01:43:36.965Z,14.54
2023-05-20T01:44:36.942Z,14.51
2023-05-20T01:45:37.114Z,14.52
2023-05-20T01:46:36.988Z,14.50
2023-05-20T01:47:36.938Z,14.51
2023-05-20T01:48:36.904Z,14.51
2023-05-20T01:49:36.922Z,14.51
2023-05-20T01:50:36.874Z,14.50
2023-05-20T01:51:36.912Z,14.50
2023-05-20T01:52:36.864Z,14.50
2023-05-20T01:53:36.862Z,14.47
2023-05-20T01:54:36.834Z,14.47
2023-05-20T01:55:36.841Z,14.46
2023-05-20T01:56:36.820Z,14.47
2023-05-20T01:57:36.840Z,14.46
2023-05-20T01:58:35.801Z,14.46
2023-05-20T01:59:36.792Z,14.46
2023-05-20T02:00:36.816Z,14.46
2023-05-20T02:01:36.765Z,14.46
2023-05-20T02:02:36.936Z,14.46
2023-05-20T02:03:36.770Z,14.46
2023-05-20T02:04:36.721Z,14.45
2023-05-20T02:05:37.149Z,14.46
2023-05-20T02:06:36.700Z,14.43
2023-05-20T02:07:36.719Z,14.45
2023-05-20T02:08:36.735Z,14.45
2023-05-20T02:09:36.683Z,14.43
2023-05-20T02:10:36.656Z,14.42
2023-05-20T02:11:36.688Z,14.42
2023-05-20T02:12:36.655Z,14.40
2023-05-20T02:13:36.651Z,14.39
2023-05-20T02:14:36.681Z,14.40
2023-05-20T02:15:36.729Z,14.39
2023-05-20T02:16:36.618Z,14.37
2023-05-20T02:17:36.654Z,14.37
2023-05-20T02:18:36.575Z,14.37
2023-05-20T02:19:36.610Z,14.36
2023-05-20T02:20:36.552Z,14.36
2023-05-20T02:21:36.601Z,14.36
2023-05-20T02:22:36.529Z,14.35
2023-05-20T02:23:36.553Z,14.32
2023-05-20T02:24:36.515Z,14.32
2023-05-20T02:25:36.564Z,14.32
2023-05-20T02:26:36.482Z,14.29
2023-05-20T02:27:36.521Z,14.29
2023-05-20T02:28:36.465Z,14.28
2023-05-20T02:29:36.488Z,14.27
2023-05-20T02:30:36.458Z,14.27
2023-05-20T02:31:36.453Z,14.24
2023-05-20T02:32:36.458Z,14.22
2023-05-20T02:33:36.474Z,14.20
2023-05-20T02:34:36.413Z,14.20
2023-05-20T02:35:36.485Z,14.18
2023-05-20T02:36:36.380Z,14.20
2023-05-20T02:37:36.405Z,14.17
2023-05-20T02:38:36.360Z,14.14
2023-05-20T02:39:36.378Z,14.12
2023-05-20T02:40:36.347Z,14.14
2023-05-20T02:41:36.351Z,14.10
2023-05-20T02:42:36.324Z,14.09
2023-05-20T02:43:36.330Z,14.09
2023-05-20T02:44:36.299Z,14.07
2023-05-20T02:45:36.350Z,14.06
2023-05-20T02:46:36.455Z,14.04
2023-05-20T02:47:36.307Z,14.03
2023-05-20T02:48:36.254Z,14.00
2023-05-20T02:49:36.281Z,13.99
2023-05-20T02:50:36.228Z,13.97
2023-05-20T02:51:36.274Z,13.95
2023-05-20T02:52:36.222Z,13.92
2023-05-20T02:53:36.214Z,13.91
2023-05-20T02:54:36.188Z,13.89
2023-05-20T02:55:36.392Z,13.87
2023-05-20T02:56:36.116Z,13.85
2023-05-20T02:57:36.181Z,13.84
2023-05-20T02:58:36.144Z,13.81
2023-05-20T02:59:36.112Z,13.78
2023-05-20T03:00:36.069Z,13.77
2023-05-20T03:01:36.131Z,13.75
2023-05-20T03:02:36.159Z,13.73
2023-05-20T03:03:36.126Z,13.71
2023-05-20T03:04:36.090Z,13.69
2023-05-20T03:05:36.163Z,13.70
2023-05-20T03:06:36.016Z,13.67
2023-05-20T03:07:36.020Z,13.67
2023-05-20T03:08:36.050Z,13.64
2023-05-20T03:09:36.046Z,13.64
2023-05-20T03:10:35.972Z,13.62
2023-05-20T03:11:35.983Z,13.62
2023-05-20T03:12:35.939Z,13.60
2023-05-20T03:13:35.974Z,13.59
2023-05-20T03:14:35.922Z,13.59
2023-05-20T03:15:36.192Z,13.57
2023-05-20T03:16:35.955Z,13.57
2023-05-20T03:17:35.944Z,13.55
2023-05-20T03:18:35.896Z,13.54
2023-05-20T03:19:35.881Z,13.54
2023-05-20T03:20:35.854Z,13.52
2023-05-20T03:21:35.877Z,13.51
2023-05-20T03:22:35.834Z,13.49
2023-05-20T03:23:35.853Z,13.48
2023-05-20T03:24:35.826Z,13.48
2023-05-20T03:25:35.913Z,13.45
2023-05-20T03:26:35.791Z,13.46
2023-05-20T03:27:35.797Z,13.45
2023-05-20T03:28:35.770Z,13.45
2023-05-20T03:29:35.799Z,13.46
2023-05-20T03:30:35.750Z,13.45
2023-05-20T03:31:35.807Z,13.46
2023-05-20T03:32:35.760Z,13.45
2023-05-20T03:33:35.783Z,13.46
2023-05-20T03:34:35.705Z,13.48
2023-05-20T03:35:36.062Z,13.48
2023-05-20T03:36:35.684Z,13.48
2023-05-20T03:37:35.695Z,13.48
2023-05-20T03:38:35.659Z,13.49
2023-05-20T03:39:35.678Z,13.49
2023-05-20T03:40:35.659Z,13.48
2023-05-20T03:41:35.658Z,13.49
2023-05-20T03:42:35.644Z,13.49
2023-05-20T03:43:35.638Z,13.51
2023-05-20T03:44:35.595Z,13.48
2023-05-20T03:45:35.831Z,13.48
2023-05-20T03:46:35.613Z,13.46
2023-05-20T03:47:35.607Z,13.46
2023-05-20T03:48:35.555Z,13.48
2023-05-20T03:49:35.569Z,13.46
2023-05-20T03:50:34.529Z,13.45
2023-05-20T03:51:35.574Z,13.45
2023-05-20T03:52:35.537Z,13.45
2023-05-20T03:53:35.518Z,13.44
2023-05-20T03:54:35.492Z,13.44
2023-05-20T03:55:35.765Z,13.42
2023-05-20T03:56:35.471Z,13.42
2023-05-20T03:57:35.501Z,13.41
2023-05-20T03:58:35.445Z,13.41
2023-05-20T03:59:35.456Z,13.39
2023-05-20T04:00:35.430Z,13.41
2023-05-20T04:01:35.461Z,13.39
2023-05-20T04:02:35.562Z,13.39
2023-05-20T04:03:35.530Z,13.39
2023-05-20T04:04:35.385Z,13.41
2023-05-20T04:05:35.603Z,13.41
2023-05-20T04:06:35.362Z,13.41
2023-05-20T04:07:35.378Z,13.41
2023-05-20T04:08:35.351Z,13.41
2023-05-20T04:09:35.372Z,13.44
2023-05-20T04:10:35.320Z,13.42
2023-05-20T04:11:35.325Z,13.44
2023-05-20T04:12:35.306Z,13.45
2023-05-20T04:13:35.318Z,13.45
2023-05-20T04:14:35.279Z,13.44
2023-05-20T04:15:35.655Z,13.45
2023-05-20T04:16:35.306Z,13.46
2023-05-20T04:17:35.289Z,13.48
2023-05-20T04:18:35.243Z,13.48
2023-05-20T04:19:35.284Z,13.51
2023-05-20T04:20:35.213Z,13.52
2023-05-20T04:21:35.234Z,13.52
2023-05-20T04:22:35.193Z,13.54
2023-05-20T04:23:35.212Z,13.54
2023-05-20T04:24:35.177Z,13.57
2023-05-20T04:25:35.251Z,13.59
2023-05-20T04:26:35.148Z,13.59
2023-05-20T04:27:35.154Z,13.59
2023-05-20T04:28:35.136Z,13.60
2023-05-20T04:29:35.147Z,13.59
2023-05-20T04:30:35.113Z,13.59
2023-05-20T04:31:35.163Z,13.60
2023-05-20T04:32:35.096Z,13.60
2023-05-20T04:33:35.092Z,13.60
2023-05-20T04:34:35.113Z,13.60
2023-05-20T04:35:35.428Z,13.62
2023-05-20T04:36:35.042Z,13.60
2023-05-20T04:37:35.061Z,13.60
2023-05-20T04:38:35.024Z,13.60
2023-05-20T04:39:35.026Z,13.59
2023-05-20T04:40:35.012Z,13.60
2023-05-20T04:41:35.024Z,13.60
2023-05-20T04:42:34.980Z,13.60
2023-05-20T04:43:35.002Z,13.62
2023-05-20T04:44:34.959Z,13.62
2023-05-20T04:45:35.181Z,13.62
2023-05-20T04:46:34.972Z,13.63
2023-05-20T04:47:35.014Z,13.63
2023-05-20T04:48:34.927Z,13.66
2023-05-20T04:49:34.926Z,13.66
2023-05-20T04:50:34.898Z,13.67
2023-05-20T04:51:34.908Z,13.69
2023-05-20T04:52:34.892Z,13.71
2023-05-20T04:53:34.906Z,13.71
2023-05-20T04:54:34.849Z,13.73
2023-05-20T04:55:35.056Z,13.77
2023-05-20T04:56:34.833Z,13.78
2023-05-20T04:57:34.854Z,13.81
2023-05-20T04:58:34.820Z,13.84
2023-05-20T04:59:34.810Z,13.87
2023-05-20T05:00:34.794Z,13.89
2023-05-20T05:01:34.821Z,13.92
2023-05-20T05:02:34.844Z,13.97
2023-05-20T05:03:36.679Z,14.00
2023-05-20T05:04:34.790Z,14.04
2023-05-20T05:05:34.879Z,14.07
2023-05-20T05:06:34.732Z,14.12
2023-05-20T05:07:34.740Z,14.17
2023-05-20T05:08:34.709Z,14.18
2023-05-20T05:09:34.961Z,14.21
2023-05-20T05:10:34.683Z,14.27
2023-05-20T05:11:34.697Z,14.27
2023-05-20T05:12:34.654Z,14.33
2023-05-20T05:13:34.698Z,14.33
2023-05-20T05:14:34.636Z,14.35
2023-05-20T05:15:34.873Z,14.39
2023-05-20T05:16:34.641Z,14.40
2023-05-20T05:17:34.677Z,14.40
2023-05-20T05:18:34.617Z,14.45
2023-05-20T05:19:34.620Z,14.46
2023-05-20T05:20:34.575Z,14.50
2023-05-20T05:21:34.596Z,14.47
2023-05-20T05:22:34.555Z,14.52
2023-05-20T05:23:34.562Z,14.52
2023-05-20T05:24:34.553Z,14.58
2023-05-20T05:25:34.759Z,14.61
2023-05-20T05:26:34.538Z,14.62
2023-05-20T05:27:34.498Z,14.65
2023-05-20T05:28:34.550Z,14.69
2023-05-20T05:29:34.479Z,14.73
2023-05-20T05:30:34.536Z,14.77
2023-05-20T05:31:34.458Z,14.78
2023-05-20T05:32:34.545Z,14.81
2023-05-20T05:33:34.441Z,14.88
2023-05-20T05:34:34.446Z,14.91
2023-05-20T05:35:34.556Z,14.94
2023-05-20T05:36:34.449Z,14.98
2023-05-20T05:37:34.393Z,15.02
2023-05-20T05:38:34.404Z,15.07
2023-05-20T05:39:34.369Z,15.11
2023-05-20T05:40:34.386Z,15.14
2023-05-20T05:41:34.349Z,15.17
2023-05-20T05:42:34.364Z,15.20
2023-05-20T05:43:34.327Z,15.23
2023-05-20T05:44:34.353Z,15.27
2023-05-20T05:45:34.461Z,15.29
2023-05-20T05:46:34.368Z,15.32
2023-05-20T05:47:34.348Z,15.34
2023-05-20T05:48:34.300Z,15.35
2023-05-20T05:49:34.278Z,15.36
2023-05-20T05:50:34.290Z,15.38
2023-05-20T05:51:35.445Z,15.41
2023-05-20T05:52:34.258Z,15.44
2023-05-20T05:53:34.264Z,15.46
2023-05-20T05:54:34.240Z,15.51
2023-05-20T05:55:34.384Z,15.57
2023-05-20T05:56:34.199Z,15.64
2023-05-20T05:57:34.185Z,15.67
2023-05-20T05:58:34.212Z,15.68
2023-05-20T05:59:34.159Z,15.74
2023-05-20T06:00:34.184Z,15.80
2023-05-20T06:01:34.132Z,15.83
2023-05-20T06:02:34.197Z,15.90
2023-05-20T06:03:34.239Z,15.97
2023-05-20T06:04:34.126Z,16.01
2023-05-20T06:05:34.481Z,16.05
2023-05-20T06:06:34.097Z,16.08
2023-05-20T06:07:34.088Z,16.15
2023-05-20T06:08:34.125Z,16.21
2023-05-20T06:09:34.051Z,16.28
2023-05-20T06:10:34.086Z,16.28
2023-05-20T06:11:34.040Z,16.35
2023-05-20T06:12:34.032Z,16.41
2023-05-20T06:13:34.017Z,16.46
2023-05-20T06:14:34.043Z,16.49
2023-05-20T06:15:34.094Z,16.60
2023-05-20T06:16:34.028Z,16.64
2023-05-20T06:17:33.981Z,16.66
2023-05-20T06:18:33.992Z,16.70
2023-05-20T06:19:34.064Z,16.73
2023-05-20T06:20:33.954Z,16.75
2023-05-20T06:21:33.917Z,16.79
2023-05-20T06:22:33.937Z,16.82
2023-05-20T06:23:33.909Z,16.85
2023-05-20T06:24:33.905Z,16.88
2023-05-20T06:25:33.996Z,16.91
2023-05-20T06:26:33.890Z,16.89
2023-05-20T06:27:33.855Z,16.91
2023-05-20T06:28:33.890Z,16.89
2023-05-20T06:29:33.835Z,16.88
2023-05-20T06:30:33.840Z,16.91
2023-05-20T06:31:33.842Z,16.93
2023-05-20T06:32:33.843Z,17.00
2023-05-20T06:33:33.793Z,17.01
2023-05-20T06:34:33.842Z,17.03
2023-05-20T06:35:33.960Z,17.07
2023-05-20T06:36:33.918Z,17.14
2023-05-20T06:37:33.768Z,17.16
2023-05-20T06:38:33.764Z,17.22
2023-05-20T06:39:33.736Z,17.26
2023-05-20T06:40:33.746Z,17.31
2023-05-20T06:41:33.706Z,17.36
2023-05-20T06:42:33.735Z,17.41
2023-05-20T06:43:33.678Z,17.49
2023-05-20T06:44:33.717Z,17.52
2023-05-20T06:45:33.864Z,17.55
2023-05-20T06:46:33.720Z,17.59
2023-05-20T06:47:33.695Z,17.70
2023-05-20T06:48:33.667Z,17.90
2023-05-20T06:49:33.638Z,18.15
2023-05-20T06:50:33.665Z,18.42
2023-05-20T06:51:33.600Z,18.63
2023-05-20T06:52:33.612Z,18.72
2023-05-20T06:53:33.589Z,18.78
2023-05-20T06:54:33.598Z,18.98
2023-05-20T06:55:33.799Z,19.22
2023-05-20T06:56:33.583Z,19.16
2023-05-20T06:57:33.552Z,19.25
2023-05-20T06:58:33.542Z,19.36
2023-05-20T06:59:33.515Z,19.58
2023-05-20T07:00:33.534Z,19.78
2023-05-20T07:01:33.570Z,19.94
2023-05-20T07:02:33.525Z,20.17
2023-05-20T07:03:33.503Z,20.29
2023-05-20T07:04:33.491Z,20.31
2023-05-20T07:05:33.631Z,20.47
2023-05-20T07:06:33.456Z,20.69
2023-05-20T07:07:33.437Z,20.82
2023-05-20T07:08:33.431Z,20.88
2023-05-20T07:09:33.407Z,21.07
2023-05-20T07:10:33.556Z,21.19
2023-05-20T07:11:33.391Z,21.38
2023-05-20T07:12:36.088Z,21.53
2023-05-20T07:13:33.365Z,21.42
2023-05-20T07:14:33.362Z,21.50
2023-05-20T07:15:33.532Z,21.34
2023-05-20T07:16:33.428Z,21.19
2023-05-20T07:17:33.368Z,21.29
2023-05-20T07:18:33.329Z,21.43
2023-05-20T07:19:33.348Z,21.61
2023-05-20T07:20:33.312Z,21.67
2023-05-20T07:21:33.291Z,21.82
2023-05-20T07:22:33.285Z,22.06
2023-05-20T07:23:33.257Z,22.27
2023-05-20T07:24:33.262Z,22.31
2023-05-20T07:25:33.449Z,22.47
2023-05-20T07:26:33.249Z,22.45
2023-05-20T07:27:33.224Z,22.14
2023-05-20T07:28:33.219Z,22.03
2023-05-20T07:29:33.187Z,22.12
2023-05-20T07:30:33.196Z,22.37
2023-05-20T07:31:33.220Z,22.39
2023-05-20T07:32:33.226Z,22.67
2023-05-20T07:33:33.164Z,22.95
2023-05-20T07:34:33.168Z,23.05
2023-05-20T07:35:33.465Z,23.17
2023-05-20T07:36:33.137Z,23.25
2023-05-20T07:37:33.107Z,23.35
2023-05-20T07:38:33.138Z,23.10
2023-05-20T07:39:33.087Z,22.95
2023-05-20T07:40:33.227Z,22.75
2023-05-20T07:41:33.065Z,22.67
2023-05-20T07:42:33.075Z,22.80
2023-05-20T07:43:33.057Z,23.09
2023-05-20T07:44:33.069Z,22.97
2023-05-20T07:45:33.372Z,23.15
2023-05-20T07:46:33.201Z,23.35
2023-05-20T07:47:33.034Z,23.39
2023-05-20T07:48:33.054Z,23.63
2023-05-20T07:49:33.007Z,23.83
2023-05-20T07:50:33.008Z,23.63
2023-05-20T07:51:32.961Z,23.47
2023-05-20T07:52:43.980Z,23.40
2023-05-20T07:53:32.931Z,23.27
2023-05-20T07:54:32.967Z,23.42
2023-05-20T07:55:33.100Z,23.68
2023-05-20T07:56:32.916Z,23.68
2023-05-20T07:57:32.893Z,23.32
2023-05-20T07:58:32.906Z,23.40
2023-05-20T07:59:32.913Z,23.42
2023-05-20T08:00:32.914Z,23.42
2023-05-20T08:01:32.850Z,23.39
2023-05-20T08:02:32.956Z,23.25
2023-05-20T08:03:32.920Z,23.51
2023-05-20T08:04:32.954Z,23.75
2023-05-20T08:05:32.981Z,23.90
2023-05-20T08:06:32.805Z,23.58
2023-05-20T08:07:32.788Z,23.78
2023-05-20T08:08:32.807Z,23.98
2023-05-20T08:09:32.772Z,23.68
2023-05-20T08:10:32.783Z,23.66
2023-05-20T08:11:32.746Z,23.61
2023-05-20T08:12:32.759Z,23.90
2023-05-20T08:13:32.720Z,24.12
2023-05-20T08:14:32.745Z,24.27
2023-05-20T08:15:32.878Z,24.49
2023-05-20T08:16:32.758Z,24.65
2023-05-20T08:17:32.700Z,24.77
2023-05-20T08:18:32.726Z,24.77
2023-05-20T08:19:32.710Z,24.93
2023-05-20T08:20:32.664Z,24.85
2023-05-20T08:21:32.653Z,24.67
2023-05-20T08:22:32.670Z,24.73
2023-05-20T08:23:35.487Z,24.88
2023-05-20T08:24:32.622Z,24.81
2023-05-20T08:25:32.770Z,24.73
2023-05-20T08:26:32.639Z,24.65
2023-05-20T08:27:32.578Z,24.46
2023-05-20T08:28:32.597Z,24.22
2023-05-20T08:29:32.569Z,24.06
2023-05-20T08:30:32.590Z,24.22
2023-05-20T08:31:32.635Z,24.35
2023-05-20T08:32:32.595Z,24.43
2023-05-20T08:33:32.550Z,24.40
2023-05-20T08:34:32.516Z,24.43
2023-05-20T08:35:32.576Z,24.31
2023-05-20T08:36:32.494Z,24.34
2023-05-20T08:37:32.467Z,24.55
2023-05-20T08:38:32.500Z,24.68
2023-05-20T08:39:32.444Z,24.78
2023-05-20T08:40:32.451Z,24.95
2023-05-20T08:41:32.425Z,25.08
2023-05-20T08:42:32.439Z,24.91
2023-05-20T08:43:32.499Z,25.06
2023-05-20T08:44:32.426Z,24.88
2023-05-20T08:45:32.598Z,24.96
2023-05-20T08:46:32.453Z,25.15
2023-05-20T08:47:32.404Z,25.15
2023-05-20T08:48:32.385Z,25.28
2023-05-20T08:49:32.409Z,25.50
2023-05-20T08:50:32.360Z,25.69
2023-05-20T08:51:32.321Z,25.85
2023-05-20T08:52:32.328Z,25.75
2023-05-20T08:53:32.308Z,25.91
2023-05-20T08:54:32.332Z,26.09
2023-05-20T08:55:32.368Z,25.92
2023-05-20T08:56:32.300Z,25.50
2023-05-20T08:57:32.271Z,24.80
2023-05-20T08:58:32.315Z,24.64
2023-05-20T08:59:32.241Z,24.78
2023-05-20T09:00:32.259Z,24.93
2023-05-20T09:01:32.227Z,25.14
2023-05-20T09:02:32.246Z,24.83
2023-05-20T09:03:32.218Z,24.50
2023-05-20T09:04:32.260Z,24.30
2023-05-20T09:05:32.572Z,24.16
2023-05-20T09:06:32.188Z,24.30
2023-05-20T09:07:32.156Z,24.58
2023-05-20T09:08:32.188Z,24.60
2023-05-20T09:09:32.184Z,24.42
2023-05-20T09:10:32.150Z,24.53
2023-05-20T09:11:32.114Z,24.31
2023-05-20T09:12:32.125Z,24.43
2023-05-20T09:13:32.095Z,24.87
2023-05-20T09:14:32.118Z,25.00
2023-05-20T09:15:32.217Z,24.78
2023-05-20T09:16:32.127Z,24.68
2023-05-20T09:17:32.113Z,24.85
2023-05-20T09:18:32.096Z,25.18
2023-05-20T09:19:32.083Z,25.32
2023-05-20T09:20:32.038Z,25.40
2023-05-20T09:21:32.029Z,25.35
2023-05-20T09:22:32.019Z,25.52
2023-05-20T09:23:32.001Z,25.73
2023-05-20T09:24:32.029Z,25.95
2023-05-20T09:25:32.096Z,25.92
2023-05-20T09:26:32.020Z,26.01
2023-05-20T09:27:31.948Z,26.01
2023-05-20T09:28:31.966Z,26.13
2023-05-20T09:29:31.931Z,25.83
2023-05-20T09:30:31.938Z,25.58
2023-05-20T09:31:31.955Z,25.52
2023-05-20T09:32:31.964Z,25.73
2023-05-20T09:33:32.304Z,26.01
2023-05-20T09:34:31.907Z,26.28
2023-05-20T09:35:31.978Z,26.63
2023-05-20T09:36:31.913Z,26.76
2023-05-20T09:37:31.857Z,26.91
2023-05-20T09:38:31.869Z,26.70
2023-05-20T09:39:31.846Z,26.70
2023-05-20T09:40:31.810Z,26.58
2023-05-20T09:41:31.856Z,26.35
2023-05-20T09:42:31.799Z,26.32
2023-05-20T09:43:31.816Z,26.36
2023-05-20T09:44:31.787Z,25.91
2023-05-20T09:45:31.806Z,25.79
2023-05-20T09:46:31.891Z,25.85
2023-05-20T09:47:31.786Z,26.01
2023-05-20T09:48:34.210Z,25.90
2023-05-20T09:49:31.752Z,25.75
2023-05-20T09:50:31.738Z,25.73
2023-05-20T09:51:31.725Z,25.23
2023-05-20T09:52:31.699Z,24.87
2023-05-20T09:53:31.721Z,25.13
2023-05-20T09:54:31.681Z,25.33
2023-05-20T09:55:31.815Z,25.38
2023-05-20T09:56:31.657Z,25.57
2023-05-20T09:57:31.689Z,25.91
2023-05-20T09:58:31.657Z,25.70
2023-05-20T09:59:31.650Z,25.77
2023-05-20T10:00:31.669Z,26.32
2023-05-20T10:01:31.653Z,26.77
2023-05-20T10:02:31.691Z,26.99
2023-05-20T10:03:31.744Z,27.00
2023-05-20T10:04:31.577Z,27.28
2023-05-20T10:05:31.638Z,27.14
2023-05-20T10:07:34.256Z,27.81
2023-05-20T10:08:26.336Z,27.87
2023-05-20T10:09:26.345Z,27.94
2023-05-20T10:10:26.317Z,27.81
2023-05-20T10:11:26.335Z,27.12
2023-05-20T10:12:26.297Z,27.12
2023-05-20T10:13:26.331Z,27.34
2023-05-20T10:14:26.270Z,27.32
2023-05-20T10:15:26.321Z,27.19
2023-05-20T10:16:26.308Z,27.12
2023-05-20T10:17:26.283Z,27.28
2023-05-20T10:18:26.239Z,27.36
2023-05-20T10:19:26.329Z,27.81
2023-05-20T10:20:26.224Z,28.19
2023-05-20T10:21:26.255Z,28.61
2023-05-20T10:22:26.192Z,28.86
2023-05-20T10:23:26.219Z,28.92
2023-05-20T10:24:26.164Z,29.06
2023-05-20T10:25:26.199Z,28.67
2023-05-20T10:26:26.144Z,28.37
2023-05-20T10:27:26.186Z,28.34
2023-05-20T10:28:26.143Z,28.39
2023-05-20T10:29:26.139Z,28.56
2023-05-20T10:30:26.102Z,28.90
2023-05-20T10:31:26.164Z,29.04
2023-05-20T10:32:26.152Z,28.62
2023-05-20T10:33:26.155Z,28.80
2023-05-20T10:34:26.075Z,28.90
2023-05-20T10:35:26.079Z,29.18
2023-05-20T10:36:26.060Z,29.16
2023-05-20T10:37:26.041Z,29.02
2023-05-20T10:38:26.052Z,28.80
2023-05-20T10:39:26.036Z,28.46
2023-05-20T10:40:26.022Z,28.59
2023-05-20T10:41:25.993Z,28.37
2023-05-20T10:42:26.013Z,28.18
2023-05-20T10:43:25.968Z,28.29
2023-05-20T10:44:26.019Z,27.84
2023-05-20T10:45:25.958Z,27.96
2023-05-20T10:46:34.985Z,27.84
2023-05-20T10:47:26.639Z,27.55
2023-05-20T10:48:26.183Z,27.09
2023-05-20T10:49:27.676Z,27.03
2023-05-20T10:50:26.150Z,27.22
2023-05-20T10:51:25.906Z,27.36
2023-05-20T10:52:25.924Z,27.81
2023-05-20T10:53:33.267Z,28.04
2023-05-20T10:54:25.907Z,28.46
2023-05-20T10:55:25.854Z,28.68
2023-05-20T10:56:25.856Z,29.05
2023-05-20T10:57:25.855Z,29.09
2023-05-20T10:58:25.854Z,28.92
2023-05-20T10:59:25.835Z,28.52
2023-05-20T11:00:25.819Z,28.06
2023-05-20T11:01:25.873Z,27.29
2023-05-20T11:02:25.842Z,26.94
2023-05-20T11:03:25.872Z,26.66
2023-05-20T11:04:25.784Z,26.54
2023-05-20T11:05:25.759Z,26.52
2023-05-20T11:06:25.887Z,26.15
2023-05-20T11:07:25.737Z,26.23
2023-05-20T11:08:29.121Z,26.17
2023-05-20T11:09:26.215Z,26.13
2023-05-20T11:10:25.770Z,26.01
2023-05-20T11:11:25.749Z,25.97
2023-05-20T11:12:25.731Z,26.47
2023-05-20T11:13:26.192Z,26.47
2023-05-20T11:14:25.694Z,26.36
2023-05-20T11:15:25.661Z,25.94
2023-05-20T11:16:25.707Z,25.82
2023-05-20T11:17:25.668Z,26.17
2023-05-20T11:18:25.668Z,26.33
2023-05-20T11:19:25.699Z,26.60
2023-05-20T11:20:25.647Z,26.87
2023-05-20T11:21:25.740Z,27.00
2023-05-20T11:22:25.620Z,26.99
2023-05-20T11:23:25.587Z,27.31
2023-05-20T11:24:25.605Z,27.74
2023-05-20T11:25:25.552Z,28.14
2023-05-20T11:26:25.600Z,28.55
2023-05-20T11:27:25.531Z,28.88
2023-05-20T11:28:25.587Z,29.04
2023-05-20T11:29:25.521Z,28.67
2023-05-20T11:30:25.536Z,28.21
2023-05-20T11:31:25.551Z,27.82
2023-05-20T11:32:25.612Z,28.14
2023-05-20T11:33:25.503Z,28.44
2023-05-20T11:34:26.904Z,28.67
2023-05-20T11:35:25.482Z,28.85
2023-05-20T11:36:27.991Z,29.19
2023-05-20T11:37:25.447Z,29.27
2023-05-20T11:38:25.465Z,29.15
2023-05-20T11:39:25.439Z,29.04
2023-05-20T11:40:27.103Z,29.15
2023-05-20T11:41:25.441Z,29.37
2023-05-20T11:42:25.384Z,29.24
2023-05-20T11:43:25.386Z,29.19
2023-05-20T11:44:25.409Z,29.37
2023-05-20T11:45:25.353Z,29.60
2023-05-20T11:46:25.402Z,29.87
2023-05-20T11:47:25.357Z,29.60
2023-05-20T11:48:25.356Z,29.06
2023-05-20T11:49:25.316Z,28.59
2023-05-20T11:50:25.366Z,28.29
2023-05-20T11:51:25.315Z,28.36
2023-05-20T11:52:25.321Z,28.54
2023-05-20T11:53:25.295Z,28.71
2023-05-20T11:54:25.329Z,28.96
2023-05-20T11:55:25.255Z,29.11
2023-05-20T11:56:25.274Z,28.83
2023-05-20T11:57:25.235Z,28.58
2023-05-20T11:58:25.268Z,28.33
2023-05-20T11:59:25.360Z,28.17
2023-05-20T12:00:26.431Z,27.96
2023-05-20T12:01:25.390Z,27.70
2023-05-20T12:02:25.281Z,27.67
2023-05-20T12:03:25.322Z,27.75
2023-05-20T12:04:25.213Z,27.79
2023-05-20T12:05:25.161Z,27.51
2023-05-20T12:06:25.198Z,27.47
2023-05-20T12:07:25.171Z,27.25
2023-05-20T12:08:25.143Z,27.14
2023-05-20T12:09:25.115Z,27.03
2023-05-20T12:10:25.137Z,27.03
2023-05-20T12:11:25.104Z,27.29
2023-05-20T12:12:25.123Z,27.49
2023-05-20T12:13:25.086Z,27.69
2023-05-20T12:14:25.090Z,27.88
2023-05-20T12:15:25.062Z,27.77
2023-05-20T12:16:25.119Z,27.41
2023-05-20T12:17:25.042Z,27.27
2023-05-20T12:18:25.056Z,27.17
2023-05-20T12:19:25.119Z,26.58
2023-05-20T12:20:25.026Z,26.05
2023-05-20T12:21:25.010Z,25.62
2023-05-20T12:22:25.018Z,25.55
2023-05-20T12:23:24.988Z,25.62
2023-05-20T12:24:25.002Z,25.85
2023-05-20T12:25:24.949Z,25.90
2023-05-20T12:26:24.974Z,25.82
2023-05-20T12:27:24.937Z,25.77
2023-05-20T12:28:24.964Z,25.67
2023-05-20T12:29:24.978Z,25.64
2023-05-20T12:30:24.939Z,25.69
2023-05-20T12:31:24.903Z,25.62
2023-05-20T12:32:24.952Z,25.58
2023-05-20T12:33:24.866Z,25.61
2023-05-20T12:34:24.875Z,25.67
2023-05-20T12:35:24.883Z,25.50
2023-05-20T12:36:24.852Z,25.52
2023-05-20T12:37:24.827Z,25.65
2023-05-20T12:38:24.840Z,25.67
2023-05-20T12:39:24.836Z,25.76
2023-05-20T12:40:24.837Z,25.92
2023-05-20T12:41:24.792Z,26.12
2023-05-20T12:42:24.803Z,26.35
2023-05-20T12:43:24.757Z,26.45
2023-05-20T12:44:24.798Z,26.47
2023-05-20T12:45:24.741Z,26.51
2023-05-20T12:46:24.801Z,26.58
2023-05-20T12:47:24.828Z,26.28
2023-05-20T12:48:24.743Z,26.39
2023-05-20T12:49:24.697Z,26.52
2023-05-20T12:50:24.712Z,26.72
2023-05-20T12:51:24.695Z,26.77
2023-05-20T12:52:24.706Z,26.67
2023-05-20T12:53:24.668Z,26.65